createdAt,value
2023-04-02T00:01:06.041Z,11.40
2023-04-02T00:06:32.715Z,11.40
2023-04-02T00:11:37.491Z,11.40
2023-04-02T00:16:40.657Z,11.40
2023-04-02T00:21:45.937Z,11.50
2023-04-02T00:26:52.659Z,11.40
2023-04-02T00:31:55.227Z,11.40
2023-04-02T00:36:57.371Z,11.40
2023-04-02T00:42:06.053Z,11.40
2023-04-02T00:47:20.884Z,11.40
2023-04-02T00:52:27.016Z,11.40
2023-04-02T00:57:29.218Z,11.40
2023-04-02T01:02:33.416Z,11.50
2023-04-02T01:07:54.206Z,11.60
2023-04-02T01:13:11.126Z,11.60
2023-04-02T01:18:33.280Z,11.60
2023-04-02T01:24:05.208Z,11.60
2023-04-02T01:29:10.977Z,11.60
2023-04-02T01:34:19.112Z,11.50
2023-04-02T01:39:58.357Z,11.50
2023-04-02T01:45:11.005Z,11.30
2023-04-02T01:50:19.121Z,11.30
2023-04-02T01:55:49.847Z,11.30
2023-04-02T02:01:01.481Z,11.20
2023-04-02T02:06:06.506Z,11.10
2023-04-02T02:11:14.860Z,11.10
2023-04-02T02:16:18.391Z,11.10
2023-04-02T02:21:43.444Z,11.20
2023-04-02T02:26:48.424Z,11.40
2023-04-02T02:31:54.973Z,11.40
2023-04-02T02:37:04.413Z,11.30
2023-04-02T02:42:47.049Z,11.30
2023-04-02T02:47:51.908Z,11.40
2023-04-02T02:52:57.240Z,11.20
2023-04-02T02:58:15.605Z,11.10
2023-04-02T03:03:30.104Z,11.10
2023-04-02T03:08:53.194Z,11.00
2023-04-02T03:14:12.427Z,11.00
2023-04-02T03:19:34.341Z,11.00
2023-04-02T03:24:53.863Z,11.00
2023-04-02T03:30:15.202Z,11.00
2023-04-02T03:35:36.243Z,11.10
2023-04-02T03:40:44.152Z,11.10
2023-04-02T03:45:53.080Z,11.10
2023-04-02T03:50:59.109Z,11.10
2023-04-02T03:56:02.216Z,11.20
2023-04-02T04:01:24.307Z,11.10
2023-04-02T04:06:30.569Z,11.20
2023-04-02T04:11:36.288Z,11.10
2023-04-02T04:17:15.773Z,11.00
2023-04-02T04:22:31.850Z,11.10
2023-04-02T04:28:05.630Z,11.00
2023-04-02T04:33:23.359Z,11.10
2023-04-02T04:38:34.326Z,11.10
2023-04-02T04:44:17.879Z,11.10
2023-04-02T04:49:41.582Z,11.10
2023-04-02T04:54:46.552Z,11.10
2023-04-02T05:00:15.691Z,11.10
2023-04-02T05:05:31.050Z,11.00
2023-04-02T05:11:01.565Z,11.10
2023-04-02T05:16:22.817Z,11.10
2023-04-02T05:21:46.455Z,11.10
2023-04-02T05:26:50.963Z,11.20
2023-04-02T05:32:06.781Z,11.20
2023-04-02T05:37:18.638Z,11.30
2023-04-02T05:42:31.268Z,11.40
2023-04-02T05:47:41.140Z,11.50
2023-04-02T05:52:51.823Z,11.60
2023-04-02T05:58:25.382Z,11.80
2023-04-02T06:03:59.573Z,11.80
2023-04-02T06:09:22.271Z,11.80
2023-04-02T06:14:25.570Z,11.80
2023-04-02T06:19:35.838Z,11.80
2023-04-02T06:24:40.390Z,11.80
2023-04-02T06:29:44.678Z,11.80
2023-04-02T06:34:51.209Z,11.80
2023-04-02T06:39:54.985Z,11.80
2023-04-02T06:44:57.439Z,11.70
2023-04-02T06:50:28.308Z,11.80
2023-04-02T06:55:55.728Z,11.90
2023-04-02T07:01:02.317Z,12.00
2023-04-02T07:06:16.062Z,12.10
2023-04-02T07:11:21.984Z,12.30
2023-04-02T07:16:29.393Z,12.40
2023-04-02T07:21:31.845Z,12.40
2023-04-02T07:26:33.893Z,12.50
2023-04-02T07:31:39.340Z,12.50
2023-04-02T07:36:41.782Z,12.50
2023-04-02T07:41:55.528Z,12.50
2023-04-02T07:46:57.536Z,12.60
2023-04-02T07:51:59.380Z,12.70
2023-04-02T07:57:01.495Z,12.90
2023-04-02T08:02:04.376Z,13.20
2023-04-02T08:07:06.424Z,13.30
2023-04-02T08:12:09.312Z,13.40
2023-04-02T08:17:11.420Z,13.50
2023-04-02T08:22:13.676Z,13.50
2023-04-02T08:27:15.671Z,13.70
2023-04-02T08:32:18.249Z,13.90
2023-04-02T08:37:20.586Z,14.10
2023-04-02T08:42:49.454Z,14.50
2023-04-02T08:47:54.076Z,15.00
2023-04-02T08:52:56.880Z,15.20
2023-04-02T08:58:20.840Z,15.20
2023-04-02T09:03:40.370Z,15.40
2023-04-02T09:08:44.285Z,15.70
2023-04-02T09:13:48.755Z,15.60
2023-04-02T09:18:52.639Z,15.40
2023-04-02T09:23:55.137Z,15.20
2023-04-02T09:29:02.077Z,15.40
2023-04-02T09:34:34.405Z,15.60
2023-04-02T09:39:36.363Z,15.80
2023-04-02T09:44:38.245Z,15.70
2023-04-02T09:49:40.754Z,15.70
2023-04-02T09:54:43.003Z,15.60
2023-04-02T09:59:46.170Z,15.50
2023-04-02T10:04:49.737Z,15.30
2023-04-02T10:09:59.237Z,15.20
2023-04-02T10:15:03.325Z,15.40
2023-04-02T10:20:27.169Z,15.60
2023-04-02T10:25:33.511Z,15.70
2023-04-02T10:30:57.740Z,15.60
2023-04-02T10:36:09.672Z,15.50
2023-04-02T10:41:11.517Z,15.60
2023-04-02T10:46:24.915Z,15.80
2023-04-02T10:51:44.668Z,15.90
2023-04-02T10:56:51.059Z,16.10
2023-04-02T11:01:57.314Z,16.30
2023-04-02T11:07:13.650Z,16.30
2023-04-02T11:12:31.531Z,16.30
2023-04-02T11:17:33.617Z,16.40
2023-04-02T11:22:35.662Z,16.40
2023-04-02T11:27:37.523Z,16.40
2023-04-02T11:32:43.211Z,16.40
2023-04-02T11:37:46.146Z,16.30
2023-04-02T11:42:50.435Z,16.30
2023-04-02T11:48:01.931Z,16.60
2023-04-02T11:53:06.669Z,16.60
2023-04-02T11:58:17.601Z,16.70
2023-04-02T12:03:38.564Z,16.90
2023-04-02T12:09:05.593Z,17.00
2023-04-02T12:14:36.614Z,17.20
2023-04-02T12:19:38.851Z,17.30
2023-04-02T12:24:41.257Z,17.40
2023-04-02T12:29:43.472Z,17.60
2023-04-02T12:34:46.433Z,17.70
2023-04-02T12:39:58.984Z,17.60
2023-04-02T12:45:01.939Z,17.80
2023-04-02T12:50:06.807Z,18.10
2023-04-02T12:55:19.286Z,18.20
2023-04-02T13:00:21.060Z,18.40
2023-04-02T13:05:42.464Z,18.50
2023-04-02T13:10:44.992Z,18.90
2023-04-02T13:16:01.251Z,19.00
2023-04-02T13:21:28.538Z,19.10
2023-04-02T13:26:30.611Z,19.20
2023-04-02T13:31:33.321Z,19.20
2023-04-02T13:36:35.563Z,19.30
2023-04-02T13:41:46.489Z,19.30
2023-04-02T13:46:48.460Z,19.50
2023-04-02T13:51:59.356Z,19.50
2023-04-02T13:57:01.417Z,19.70
2023-04-02T14:02:30.202Z,19.80
2023-04-02T14:07:47.097Z,19.80
2023-04-02T14:13:13.853Z,19.90
2023-04-02T14:18:46.355Z,20.10
2023-04-02T14:24:03.111Z,20.00
2023-04-02T14:29:28.806Z,20.00
2023-04-02T14:34:31.330Z,19.90
2023-04-02T14:40:00.578Z,19.70
2023-04-02T14:45:12.032Z,19.80
2023-04-02T14:50:28.061Z,20.00
2023-04-02T14:55:46.886Z,19.90
2023-04-02T15:01:06.153Z,19.80
2023-04-02T15:06:15.369Z,19.70
2023-04-02T15:11:27.354Z,19.30
2023-04-02T15:16:29.787Z,18.90
2023-04-02T15:21:57.663Z,18.60
2023-04-02T15:27:24.945Z,18.50
2023-04-02T15:32:33.436Z,18.40
2023-04-02T15:37:57.085Z,18.20
2023-04-02T15:43:20.626Z,18.00
2023-04-02T15:48:33.862Z,17.90
2023-04-02T15:53:56.574Z,18.00
2023-04-02T15:59:07.415Z,17.90
2023-04-02T16:04:28.320Z,17.60
2023-04-02T16:09:50.496Z,17.60
2023-04-02T16:14:59.650Z,17.50
2023-04-02T16:20:18.720Z,17.50
2023-04-02T16:25:23.471Z,17.50
2023-04-02T16:30:34.628Z,17.60
2023-04-02T16:36:11.906Z,17.60
2023-04-02T16:41:30.491Z,17.70
2023-04-02T16:46:47.631Z,17.50
2023-04-02T16:52:13.332Z,17.30
2023-04-02T16:57:29.508Z,17.20
2023-04-02T17:02:39.773Z,17.00
2023-04-02T17:07:51.491Z,16.90
2023-04-02T17:13:09.798Z,16.90
2023-04-02T17:18:19.862Z,16.80
2023-04-02T17:23:22.144Z,16.90
2023-04-02T17:28:29.578Z,16.90
2023-04-02T17:33:31.432Z,17.00
2023-04-02T17:39:01.644Z,16.80
2023-04-02T17:44:30.932Z,16.90
2023-04-02T17:49:50.776Z,16.70
2023-04-02T17:55:17.327Z,16.60
2023-04-02T18:00:53.131Z,16.50
2023-04-02T18:06:16.016Z,16.60
2023-04-02T18:11:52.632Z,16.40
2023-04-02T18:17:19.522Z,16.30
2023-04-02T18:22:27.569Z,16.10
2023-04-02T18:27:58.331Z,16.00
2023-04-02T18:33:30.188Z,15.90
2023-04-02T18:38:36.079Z,15.90
2023-04-02T18:44:06.066Z,15.80
2023-04-02T18:49:32.289Z,15.70
2023-04-02T18:54:49.417Z,15.60
2023-04-02T18:59:56.762Z,15.60
2023-04-02T19:05:03.585Z,15.70
2023-04-02T19:10:23.378Z,15.70
2023-04-02T19:16:01.096Z,15.40
2023-04-02T19:21:38.253Z,15.30
2023-04-02T19:26:53.577Z,15.10
2023-04-02T19:32:18.215Z,15.00
2023-04-02T19:37:31.760Z,14.90
2023-04-02T19:42:42.988Z,14.90
2023-04-02T19:47:45.003Z,14.80
2023-04-02T19:52:47.011Z,14.70
2023-04-02T19:57:49.026Z,14.60
2023-04-02T20:02:50.906Z,14.40
2023-04-02T20:07:52.839Z,14.30
2023-04-02T20:12:54.752Z,14.10
2023-04-02T20:17:56.781Z,14.00
2023-04-02T20:22:58.921Z,14.00
2023-04-02T20:28:03.795Z,13.90
2023-04-02T20:33:06.022Z,13.90
2023-04-02T20:38:09.062Z,14.00
2023-04-02T20:43:11.241Z,13.90
2023-04-02T20:48:13.172Z,13.70
2023-04-02T20:53:16.618Z,13.70
2023-04-02T20:58:19.459Z,13.70
2023-04-02T21:03:21.328Z,13.60
2023-04-02T21:08:24.004Z,13.60
2023-04-02T21:13:29.755Z,13.40
2023-04-02T21:18:32.330Z,13.40
2023-04-02T21:23:34.831Z,13.30
2023-04-02T21:28:36.845Z,13.20
2023-04-02T21:33:44.772Z,13.10
2023-04-02T21:38:49.085Z,13.10
2023-04-02T21:43:51.422Z,13.10
2023-04-02T21:48:55.820Z,13.10
2023-04-02T21:53:59.171Z,13.10
2023-04-02T21:59:02.280Z,13.00
2023-04-02T22:04:06.253Z,12.80
2023-04-02T22:09:17.450Z,12.60
2023-04-02T22:14:19.371Z,12.50
2023-04-02T22:19:21.667Z,12.30
2023-04-02T22:24:23.575Z,12.20
2023-04-02T22:29:25.753Z,11.90
2023-04-02T22:34:27.753Z,11.80
2023-04-02T22:39:29.734Z,11.70
2023-04-02T22:44:31.853Z,11.70
2023-04-02T22:49:33.708Z,11.60
2023-04-02T22:54:35.789Z,11.50
2023-04-02T22:59:37.764Z,11.50
2023-04-02T23:04:41.498Z,11.40
2023-04-02T23:09:44.641Z,11.40
2023-04-02T23:14:46.737Z,11.30
2023-04-02T23:19:48.686Z,11.30
2023-04-02T23:24:50.769Z,11.20
2023-04-02T23:29:52.615Z,11.10
2023-04-02T23:34:54.506Z,11.10
2023-04-02T23:39:56.535Z,11.00
2023-04-02T23:44:58.383Z,10.90
2023-04-02T23:50:00.321Z,10.70
2023-04-02T23:55:02.216Z,10.70
